Share

Kumamoto, Japan

1:48 PM JST on April 25, 2014 (GMT +0900)
Kumamoto (RJFT) Elev 643 ft | 32.84 °N, 130.86 °E | Change Station

Current weather conditions updated 48 minutes ago

Scattered Clouds
Scattered Clouds
73 °F
Feels Like 73 °F
N
7
Wind Variable Wind from Variable
Sunrise 5:36 AM
Sunset 6:53 PM
Moon Waning Crescent

Today is forecast to be nearly the same temperature as yesterday.

Pressure 30.18 in
Visibility 6.2 miles
Clouds Few 4000 ft
Scattered Clouds 6000 ft
Dew Point 45 °F
Humidity 36%
Rainfall 0.00 in
Snow Depth Not available.
UV 10 out of 16
Pollen Not available.
Air Quality Not available.
Flu Activity Not available.
METAR RJFT 250400Z VRB06KT 9999 FEW040 SCT060 23/07 Q1022

More Conditions Fewer Conditions

Pressure 30.18 in
Visibility 6.2 miles
Clouds Few 4000 ft
Scattered Clouds 6000 ft
Dew Point 45 °F
Humidity 36%
Rainfall 0.00 in
Snow Depth Not available.
UV 10 out of 16
Pollen Not available.
Air Quality Not available.
Flu Activity Not available.
METAR RJFT 250400Z VRB06KT 9999 FEW040 SCT060 23/07 Q1022

More Conditions Fewer Conditions

10-Day Weather Forecast

Almanac

Astronomy

Apr. 25, 2014 Rise Set
Actual Time 5:36 AM JST 6:53 PM JST
Civil Twilight 5:10 AM JST 7:19 PM JST
Nautical Twilight 4:39 AM JST 7:50 PM JST
Astronomical Twilight 4:07 AM JST 8:22 PM JST
Moon 2:46 AM JST 2:48 PM JST
Length of Visible Light 14h 09m
Length of Day
13h 17m
Tomorrow will be 1m 49s longer.
Waning Crescent, 19% of the Moon is Illuminated
Today
Waning Crescent
Apr 29
New
May 6
First Quarter
May 14
Full
May 21
Last Quarter

Yesterday's Extremes

Country Highs Country Lows

Community

  • Deer in evening light
    Deer in evening light
  • Critter
    Critter
  • Jone Runs Falls
    Jone Runs Falls
  • Easter in Shenandoah National Park
    Easter in Shenandoah National Park
  • Sunset at Apalachicola Bay, Florida
    Sunset at Apalachicola Bay, Florida

WunderPhotos

Upload Photos

1,704,850 photos uploaded!

WunderBlogs® & News

Nearby

Snow Depth

Not available.

Coastal Water Temperatures

Place Temperature
No Stations Reporting

Earthquake Activity

City Distance Mag. Time & Date
No recent earthquake activity has been reported nearby.
Minimum magnitude displayed is 2.5.

Nearby Weather Stations

There are no personal weather stations in this area.

What do you think?

We're not finished. Please let us know what you like, what you don't like, and what you are still missing.